sensor_id;sensor_type;location;lat;lon;timestamp;pressure;altitude;pressure_sealevel;temperature;humidity
12676;BME280;63820;65.654;21.944;2023-08-31T00:02:33;100788.41;;;10.09;100.00
12676;BME280;63820;65.654;21.944;2023-08-31T00:05:17;100784.00;;;10.11;100.00
12676;BME280;63820;65.654;21.944;2023-08-31T00:08:01;100776.97;;;10.13;100.00
12676;BME280;63820;65.654;21.944;2023-08-31T00:10:45;100783.03;;;10.13;100.00
12676;BME280;63820;65.654;21.944;2023-08-31T00:13:29;100780.31;;;10.16;100.00
12676;BME280;63820;65.654;21.944;2023-08-31T00:16:13;100771.66;;;10.16;100.00
12676;BME280;63820;65.654;21.944;2023-08-31T00:18:58;100766.53;;;10.14;100.00
12676;BME280;63820;65.654;21.944;2023-08-31T00:21:43;100763.06;;;10.14;100.00
12676;BME280;63820;65.654;21.944;2023-08-31T00:24:27;100750.97;;;10.13;100.00
12676;BME280;63820;65.654;21.944;2023-08-31T00:27:15;100749.16;;;10.15;100.00
12676;BME280;63820;65.654;21.944;2023-08-31T00:30:01;100744.94;;;10.12;100.00
12676;BME280;63820;65.654;21.944;2023-08-31T00:32:46;100746.69;;;10.12;100.00
12676;BME280;63820;65.654;21.944;2023-08-31T00:35:33;100745.78;;;10.13;100.00
12676;BME280;63820;65.654;21.944;2023-08-31T00:38:18;100745.78;;;10.13;100.00
12676;BME280;63820;65.654;21.944;2023-08-31T00:41:03;100739.56;;;10.17;100.00
12676;BME280;63820;65.654;21.944;2023-08-31T00:43:47;100743.06;;;10.16;100.00
12676;BME280;63820;65.654;21.944;2023-08-31T00:46:32;100738.78;;;10.15;100.00
12676;BME280;63820;65.654;21.944;2023-08-31T00:49:16;100750.75;;;10.19;100.00
12676;BME280;63820;65.654;21.944;2023-08-31T00:52:01;100737.72;;;10.21;100.00
12676;BME280;63820;65.654;21.944;2023-08-31T00:54:45;100737.66;;;10.22;100.00
12676;BME280;63820;65.654;21.944;2023-08-31T00:57:30;100722.84;;;10.24;100.00
12676;BME280;63820;65.654;21.944;2023-08-31T01:00:14;100724.44;;;10.28;100.00
12676;BME280;63820;65.654;21.944;2023-08-31T01:03:13;100722.56;;;10.32;100.00
12676;BME280;63820;65.654;21.944;2023-08-31T01:09:34;100718.88;;;10.37;100.00
12676;BME280;63820;65.654;21.944;2023-08-31T01:12:46;100722.97;;;10.43;100.00
12676;BME280;63820;65.654;21.944;2023-08-31T01:15:32;100724.59;;;10.45;100.00
12676;BME280;63820;65.654;21.944;2023-08-31T01:18:17;100723.66;;;10.48;100.00
12676;BME280;63820;65.654;21.944;2023-08-31T01:24:03;100722.44;;;10.57;100.00
12676;BME280;63820;65.654;21.944;2023-08-31T01:26:48;100736.22;;;10.59;100.00
12676;BME280;63820;65.654;21.944;2023-08-31T01:29:32;100747.31;;;10.64;100.00
12676;BME280;63820;65.654;21.944;2023-08-31T01:32:16;100757.44;;;10.71;100.00
12676;BME280;63820;65.654;21.944;2023-08-31T01:35:01;100759.72;;;10.79;100.00
12676;BME280;63820;65.654;21.944;2023-08-31T01:37:51;100754.34;;;10.84;100.00
12676;BME280;63820;65.654;21.944;2023-08-31T01:40:53;100768.88;;;10.89;100.00
12676;BME280;63820;65.654;21.944;2023-08-31T01:43:40;100772.13;;;10.94;100.00
12676;BME280;63820;65.654;21.944;2023-08-31T01:46:24;100775.47;;;10.98;100.00
12676;BME280;63820;65.654;21.944;2023-08-31T01:49:10;100780.41;;;11.04;100.00
12676;BME280;63820;65.654;21.944;2023-08-31T01:51:54;100777.56;;;11.10;100.00
12676;BME280;63820;65.654;21.944;2023-08-31T01:54:37;100780.97;;;11.12;100.00
12676;BME280;63820;65.654;21.944;2023-08-31T01:57:22;100783.38;;;11.17;100.00
12676;BME280;63820;65.654;21.944;2023-08-31T02:00:06;100774.59;;;11.19;100.00
12676;BME280;63820;65.654;21.944;2023-08-31T02:02:51;100764.19;;;11.19;100.00
12676;BME280;63820;65.654;21.944;2023-08-31T02:05:35;100763.28;;;11.20;100.00
12676;BME280;63820;65.654;21.944;2023-08-31T02:08:19;100767.50;;;11.23;100.00
12676;BME280;63820;65.654;21.944;2023-08-31T02:11:03;100768.34;;;11.23;100.00
12676;BME280;63820;65.654;21.944;2023-08-31T02:13:47;100760.47;;;11.25;100.00
12676;BME280;63820;65.654;21.944;2023-08-31T02:16:31;100760.47;;;11.25;100.00
12676;BME280;63820;65.654;21.944;2023-08-31T02:19:15;100763.13;;;11.23;100.00
12676;BME280;63820;65.654;21.944;2023-08-31T02:21:59;100762.34;;;11.21;100.00
12676;BME280;63820;65.654;21.944;2023-08-31T02:24:43;100760.53;;;11.23;100.00
12676;BME280;63820;65.654;21.944;2023-08-31T02:27:28;100745.16;;;11.17;100.00
12676;BME280;63820;65.654;21.944;2023-08-31T02:30:15;100753.69;;;11.21;100.00
12676;BME280;63820;65.654;21.944;2023-08-31T02:33:00;100757.22;;;11.20;100.00
12676;BME280;63820;65.654;21.944;2023-08-31T02:35:44;100758.38;;;11.12;100.00
12676;BME280;63820;65.654;21.944;2023-08-31T02:38:27;100752.50;;;11.07;100.00
12676;BME280;63820;65.654;21.944;2023-08-31T02:41:12;100760.56;;;11.01;100.00
12676;BME280;63820;65.654;21.944;2023-08-31T02:43:56;100749.50;;;10.96;100.00
12676;BME280;63820;65.654;21.944;2023-08-31T02:46:41;100747.06;;;10.92;100.00
12676;BME280;63820;65.654;21.944;2023-08-31T02:49:25;100738.53;;;10.88;100.00
12676;BME280;63820;65.654;21.944;2023-08-31T02:52:09;100730.00;;;10.85;100.00
12676;BME280;63820;65.654;21.944;2023-08-31T02:54:53;100734.34;;;10.84;100.00
12676;BME280;63820;65.654;21.944;2023-08-31T02:57:37;100726.63;;;10.82;100.00
12676;BME280;63820;65.654;21.944;2023-08-31T03:00:22;100723.94;;;10.84;100.00
12676;BME280;63820;65.654;21.944;2023-08-31T03:03:05;100729.03;;;10.87;100.00
12676;BME280;63820;65.654;21.944;2023-08-31T03:05:54;100723.75;;;10.89;100.00
12676;BME280;63820;65.654;21.944;2023-08-31T03:08:39;100710.03;;;10.85;100.00
12676;BME280;63820;65.654;21.944;2023-08-31T03:11:23;100713.94;;;10.95;100.00
12676;BME280;63820;65.654;21.944;2023-08-31T03:14:07;100707.13;;;10.93;100.00
12676;BME280;63820;65.654;21.944;2023-08-31T03:16:53;100714.72;;;10.97;100.00
12676;BME280;63820;65.654;21.944;2023-08-31T03:19:37;100718.06;;;11.01;100.00
12676;BME280;63820;65.654;21.944;2023-08-31T03:22:21;100716.31;;;11.01;100.00
12676;BME280;63820;65.654;21.944;2023-08-31T03:25:05;100713.38;;;11.09;100.00
12676;BME280;63820;65.654;21.944;2023-08-31T03:27:49;100718.47;;;11.12;100.00
12676;BME280;63820;65.654;21.944;2023-08-31T03:30:33;100728.69;;;11.17;100.00
12676;BME280;63820;65.654;21.944;2023-08-31T03:33:18;100723.28;;;11.21;100.00
12676;BME280;63820;65.654;21.944;2023-08-31T03:36:02;100722.19;;;11.27;100.00
12676;BME280;63820;65.654;21.944;2023-08-31T03:38:47;100725.44;;;11.32;100.00
12676;BME280;63820;65.654;21.944;2023-08-31T03:41:32;100726.94;;;11.37;100.00
12676;BME280;63820;65.654;21.944;2023-08-31T03:44:16;100731.25;;;11.38;100.00
12676;BME280;63820;65.654;21.944;2023-08-31T03:47:00;100733.78;;;11.40;100.00
12676;BME280;63820;65.654;21.944;2023-08-31T03:49:43;100731.97;;;11.42;100.00
12676;BME280;63820;65.654;21.944;2023-08-31T03:52:27;100731.03;;;11.43;100.00
12676;BME280;63820;65.654;21.944;2023-08-31T03:55:11;100730.94;;;11.44;100.00
12676;BME280;63820;65.654;21.944;2023-08-31T03:57:55;100726.44;;;11.48;100.00
12676;BME280;63820;65.654;21.944;2023-08-31T04:00:39;100726.59;;;11.45;100.00
12676;BME280;63820;65.654;21.944;2023-08-31T04:03:23;100735.13;;;11.48;100.00
12676;BME280;63820;65.654;21.944;2023-08-31T04:06:08;100727.25;;;11.50;100.00
12676;BME280;63820;65.654;21.944;2023-08-31T04:08:51;100729.72;;;11.53;100.00
12676;BME280;63820;65.654;21.944;2023-08-31T04:11:35;100739.28;;;11.53;100.00
12676;BME280;63820;65.654;21.944;2023-08-31T04:14:19;100740.13;;;11.53;100.00
12676;BME280;63820;65.654;21.944;2023-08-31T04:17:03;100738.25;;;11.57;100.00
12676;BME280;63820;65.654;21.944;2023-08-31T04:19:50;100734.72;;;11.58;100.00
12676;BME280;63820;65.654;21.944;2023-08-31T04:22:34;100733.75;;;11.60;100.00
12676;BME280;63820;65.654;21.944;2023-08-31T04:25:18;100728.34;;;11.65;100.00
12676;BME280;63820;65.654;21.944;2023-08-31T04:28:03;100716.78;;;11.70;100.00
12676;BME280;63820;65.654;21.944;2023-08-31T04:30:47;100714.91;;;11.74;100.00
12676;BME280;63820;65.654;21.944;2023-08-31T04:33:37;100715.31;;;11.85;100.00
12676;BME280;63820;65.654;21.944;2023-08-31T04:36:22;100707.28;;;11.90;100.00
12676;BME280;63820;65.654;21.944;2023-08-31T04:39:06;100711.38;;;11.95;100.00
12676;BME280;63820;65.654;21.944;2023-08-31T04:41:51;100704.13;;;12.02;100.00
12676;BME280;63820;65.654;21.944;2023-08-31T04:44:35;100703.28;;;12.01;100.00
12676;BME280;63820;65.654;21.944;2023-08-31T04:47:19;100695.44;;;12.01;100.00
12676;BME280;63820;65.654;21.944;2023-08-31T04:50:03;100702.28;;;12.04;100.00
12676;BME280;63820;65.654;21.944;2023-08-31T04:52:50;100689.09;;;12.07;100.00
12676;BME280;63820;65.654;21.944;2023-08-31T04:55:34;100679.38;;;12.10;100.00
12676;BME280;63820;65.654;21.944;2023-08-31T04:58:18;100679.94;;;12.17;100.00
12676;BME280;63820;65.654;21.944;2023-08-31T05:01:02;100679.50;;;12.26;100.00
12676;BME280;63820;65.654;21.944;2023-08-31T05:03:47;100672.88;;;12.38;100.00
12676;BME280;63820;65.654;21.944;2023-08-31T05:06:31;100666.75;;;12.56;100.00
12676;BME280;63820;65.654;21.944;2023-08-31T05:09:15;100659.94;;;12.71;100.00
12676;BME280;63820;65.654;21.944;2023-08-31T05:12:00;100659.25;;;12.85;100.00
12676;BME280;63820;65.654;21.944;2023-08-31T05:14:45;100667.00;;;13.03;100.00
12676;BME280;63820;65.654;21.944;2023-08-31T05:17:29;100672.19;;;13.22;100.00
12676;BME280;63820;65.654;21.944;2023-08-31T05:20:14;100662.56;;;13.40;100.00
12676;BME280;63820;65.654;21.944;2023-08-31T05:22:58;100668.56;;;13.58;100.00
12676;BME280;63820;65.654;21.944;2023-08-31T05:25:43;100665.31;;;13.70;100.00
12676;BME280;63820;65.654;21.944;2023-08-31T05:28:27;100667.09;;;13.85;100.00
12676;BME280;63820;65.654;21.944;2023-08-31T05:31:12;100659.09;;;14.04;100.00
12676;BME280;63820;65.654;21.944;2023-08-31T05:33:56;100668.16;;;14.14;100.00
12676;BME280;63820;65.654;21.944;2023-08-31T05:36:40;100671.00;;;14.25;100.00
12676;BME280;63820;65.654;21.944;2023-08-31T05:39:24;100663.50;;;14.35;100.00
12676;BME280;63820;65.654;21.944;2023-08-31T05:42:09;100665.28;;;14.34;100.00
12676;BME280;63820;65.654;21.944;2023-08-31T05:44:53;100670.88;;;14.44;100.00
12676;BME280;63820;65.654;21.944;2023-08-31T05:47:36;100657.88;;;14.43;100.00
12676;BME280;63820;65.654;21.944;2023-08-31T05:50:22;100652.63;;;14.43;100.00
12676;BME280;63820;65.654;21.944;2023-08-31T05:53:06;100646.59;;;14.40;100.00
12676;BME280;63820;65.654;21.944;2023-08-31T05:55:54;100640.88;;;14.50;100.00
12676;BME280;63820;65.654;21.944;2023-08-31T05:58:38;100646.69;;;14.55;100.00
12676;BME280;63820;65.654;21.944;2023-08-31T06:01:22;100638.63;;;14.58;100.00
12676;BME280;63820;65.654;21.944;2023-08-31T06:04:06;100644.00;;;14.70;100.00
12676;BME280;63820;65.654;21.944;2023-08-31T06:06:50;100640.03;;;14.79;100.00
12676;BME280;63820;65.654;21.944;2023-08-31T06:09:37;100632.88;;;14.97;100.00
12676;BME280;63820;65.654;21.944;2023-08-31T06:12:22;100640.75;;;15.11;100.00
12676;BME280;63820;65.654;21.944;2023-08-31T06:15:06;100632.91;;;15.25;100.00
12676;BME280;63820;65.654;21.944;2023-08-31T06:17:53;100635.81;;;15.35;100.00
12676;BME280;63820;65.654;21.944;2023-08-31T06:20:37;100638.94;;;15.42;100.00
12676;BME280;63820;65.654;21.944;2023-08-31T06:23:21;100632.84;;;15.41;100.00
12676;BME280;63820;65.654;21.944;2023-08-31T06:26:05;100640.44;;;15.46;100.00
12676;BME280;63820;65.654;21.944;2023-08-31T06:28:49;100643.13;;;15.44;100.00
12676;BME280;63820;65.654;21.944;2023-08-31T06:31:34;100641.25;;;15.46;100.00
12676;BME280;63820;65.654;21.944;2023-08-31T06:34:18;100642.09;;;15.47;100.00
12676;BME280;63820;65.654;21.944;2023-08-31T06:37:02;100639.50;;;15.47;100.00
12676;BME280;63820;65.654;21.944;2023-08-31T06:39:47;100647.16;;;15.50;100.00
12676;BME280;63820;65.654;21.944;2023-08-31T06:42:31;100637.72;;;15.47;100.00
12676;BME280;63820;65.654;21.944;2023-08-31T06:45:15;100633.97;;;15.51;100.00
12676;BME280;63820;65.654;21.944;2023-08-31T06:47:59;100635.31;;;15.58;100.00
12676;BME280;63820;65.654;21.944;2023-08-31T06:50:43;100623.88;;;15.59;100.00
12676;BME280;63820;65.654;21.944;2023-08-31T06:53:27;100637.72;;;15.47;100.00
12676;BME280;63820;65.654;21.944;2023-08-31T06:56:11;100631.63;;;15.47;100.00
12676;BME280;63820;65.654;21.944;2023-08-31T06:58:55;100634.34;;;15.45;100.00
12676;BME280;63820;65.654;21.944;2023-08-31T07:01:39;100634.06;;;15.35;100.00
12676;BME280;63820;65.654;21.944;2023-08-31T07:04:23;100637.16;;;15.42;100.00
12676;BME280;63820;65.654;21.944;2023-08-31T07:07:07;100642.94;;;15.47;100.00
12676;BME280;63820;65.654;21.944;2023-08-31T07:09:52;100634.16;;;15.48;100.00
12676;BME280;63820;65.654;21.944;2023-08-31T07:12:38;100634.91;;;15.50;100.00
12676;BME280;63820;65.654;21.944;2023-08-31T07:15:22;100634.63;;;15.55;100.00
12676;BME280;63820;65.654;21.944;2023-08-31T07:18:06;100625.66;;;15.59;100.00
12676;BME280;63820;65.654;21.944;2023-08-31T07:20:51;100618.72;;;15.58;100.00
12676;BME280;63820;65.654;21.944;2023-08-31T07:23:35;100626.84;;;15.53;100.00
12676;BME280;63820;65.654;21.944;2023-08-31T07:26:19;100627.78;;;15.52;100.00
12676;BME280;63820;65.654;21.944;2023-08-31T07:29:03;100632.38;;;15.49;100.00
12676;BME280;63820;65.654;21.944;2023-08-31T07:31:48;100629.28;;;15.42;100.00
12676;BME280;63820;65.654;21.944;2023-08-31T07:34:33;100627.41;;;15.30;100.00
12676;BME280;63820;65.654;21.944;2023-08-31T07:37:17;100628.78;;;15.21;100.00
12676;BME280;63820;65.654;21.944;2023-08-31T07:40:01;100631.50;;;15.20;100.00
12676;BME280;63820;65.654;21.944;2023-08-31T07:42:45;100631.59;;;15.18;100.00
12676;BME280;63820;65.654;21.944;2023-08-31T07:45:29;100625.31;;;15.21;100.00
12676;BME280;63820;65.654;21.944;2023-08-31T07:48:13;100629.25;;;15.14;100.00
12676;BME280;63820;65.654;21.944;2023-08-31T07:50:57;100627.56;;;15.13;100.00
12676;BME280;63820;65.654;21.944;2023-08-31T07:53:41;100627.94;;;15.07;100.00
12676;BME280;63820;65.654;21.944;2023-08-31T07:56:26;100627.44;;;15.00;100.00
12676;BME280;63820;65.654;21.944;2023-08-31T07:59:10;100630.16;;;14.98;100.00
12676;BME280;63820;65.654;21.944;2023-08-31T08:01:54;100637.84;;;15.01;100.00
12676;BME280;63820;65.654;21.944;2023-08-31T08:04:38;100625.59;;;15.02;100.00
12676;BME280;63820;65.654;21.944;2023-08-31T08:07:22;100629.34;;;15.12;100.00
12676;BME280;63820;65.654;21.944;2023-08-31T08:10:06;100627.19;;;15.19;100.00
12676;BME280;63820;65.654;21.944;2023-08-31T08:12:51;100627.50;;;15.28;100.00
12676;BME280;63820;65.654;21.944;2023-08-31T08:15:35;100623.28;;;15.40;100.00
12676;BME280;63820;65.654;21.944;2023-08-31T08:18:19;100615.31;;;15.56;100.00
12676;BME280;63820;65.654;21.944;2023-08-31T08:21:03;100610.63;;;15.75;100.00
12676;BME280;63820;65.654;21.944;2023-08-31T08:23:47;100620.72;;;15.95;100.00
12676;BME280;63820;65.654;21.944;2023-08-31T08:26:34;100622.00;;;16.02;100.00
12676;BME280;63820;65.654;21.944;2023-08-31T08:29:18;100626.78;;;16.10;100.00
12676;BME280;63820;65.654;21.944;2023-08-31T08:32:02;100627.50;;;16.12;100.00
12676;BME280;63820;65.654;21.944;2023-08-31T08:34:47;100626.38;;;16.16;100.00
12676;BME280;63820;65.654;21.944;2023-08-31T08:37:31;100630.84;;;16.28;100.00
12676;BME280;63820;65.654;21.944;2023-08-31T08:40:18;100628.03;;;16.31;100.00
12676;BME280;63820;65.654;21.944;2023-08-31T08:43:06;100630.50;;;16.47;100.00
12676;BME280;63820;65.654;21.944;2023-08-31T08:45:52;100627.16;;;16.58;100.00
12676;BME280;63820;65.654;21.944;2023-08-31T08:48:37;100634.16;;;16.72;100.00
12676;BME280;63820;65.654;21.944;2023-08-31T08:51:22;100626.38;;;16.83;100.00
12676;BME280;63820;65.654;21.944;2023-08-31T08:54:07;100624.94;;;16.91;100.00
12676;BME280;63820;65.654;21.944;2023-08-31T08:56:51;100623.03;;;16.93;100.00
12676;BME280;63820;65.654;21.944;2023-08-31T08:59:35;100620.63;;;16.90;100.00
12676;BME280;63820;65.654;21.944;2023-08-31T09:02:19;100616.31;;;16.89;100.00
12676;BME280;63820;65.654;21.944;2023-08-31T09:05:03;100624.84;;;16.93;100.00
12676;BME280;63820;65.654;21.944;2023-08-31T09:08:08;100610.75;;;17.07;100.00
12676;BME280;63820;65.654;21.944;2023-08-31T09:10:57;100605.41;;;17.21;100.00
12676;BME280;63820;65.654;21.944;2023-08-31T09:13:42;100606.03;;;17.37;100.00
12676;BME280;63820;65.654;21.944;2023-08-31T09:16:27;100616.63;;;17.61;100.00
12676;BME280;63820;65.654;21.944;2023-08-31T09:19:23;100600.88;;;17.85;100.00
12676;BME280;63820;65.654;21.944;2023-08-31T09:22:10;100597.44;;;18.08;100.00
12676;BME280;63820;65.654;21.944;2023-08-31T09:24:54;100601.22;;;18.17;100.00
12676;BME280;63820;65.654;21.944;2023-08-31T09:27:38;100596.28;;;18.36;100.00
12676;BME280;63820;65.654;21.944;2023-08-31T09:30:24;100583.75;;;18.51;100.00
12676;BME280;63820;65.654;21.944;2023-08-31T09:33:09;100581.06;;;18.75;100.00
12676;BME280;63820;65.654;21.944;2023-08-31T09:35:57;100587.09;;;18.88;100.00
12676;BME280;63820;65.654;21.944;2023-08-31T09:38:42;100581.03;;;19.10;100.00
12676;BME280;63820;65.654;21.944;2023-08-31T09:41:27;100567.88;;;19.54;100.00
12676;BME280;63820;65.654;21.944;2023-08-31T09:44:16;100563.69;;;19.95;100.00
12676;BME280;63820;65.654;21.944;2023-08-31T09:47:00;100565.72;;;20.35;100.00
12676;BME280;63820;65.654;21.944;2023-08-31T09:49:46;100553.69;;;20.83;100.00
12676;BME280;63820;65.654;21.944;2023-08-31T09:52:30;100554.38;;;21.27;100.00
12676;BME280;63820;65.654;21.944;2023-08-31T09:55:16;100558.72;;;21.78;100.00
12676;BME280;63820;65.654;21.944;2023-08-31T09:58:05;100552.19;;;21.82;100.00
12676;BME280;63820;65.654;21.944;2023-08-31T10:00:51;100556.03;;;21.28;100.00
12676;BME280;63820;65.654;21.944;2023-08-31T10:03:37;100548.91;;;20.98;100.00
12676;BME280;63820;65.654;21.944;2023-08-31T10:06:22;100556.19;;;20.54;100.00
12676;BME280;63820;65.654;21.944;2023-08-31T10:09:07;100555.13;;;20.46;100.00
12676;BME280;63820;65.654;21.944;2023-08-31T10:11:53;100553.31;;;20.14;100.00
12676;BME280;63820;65.654;21.944;2023-08-31T10:14:38;100561.44;;;19.90;100.00
12676;BME280;63820;65.654;21.944;2023-08-31T10:17:24;100559.09;;;19.65;100.00
12676;BME280;63820;65.654;21.944;2023-08-31T10:20:10;100557.06;;;19.24;100.00
12676;BME280;63820;65.654;21.944;2023-08-31T10:22:55;100553.19;;;18.94;100.00
12676;BME280;63820;65.654;21.944;2023-08-31T10:28:39;100551.84;;;18.78;100.00
12676;BME280;63820;65.654;21.944;2023-08-31T10:31:28;100541.53;;;18.64;100.00
12676;BME280;63820;65.654;21.944;2023-08-31T10:34:13;100545.91;;;18.52;100.00
12676;BME280;63820;65.654;21.944;2023-08-31T10:36:58;100533.88;;;18.37;100.00
12676;BME280;63820;65.654;21.944;2023-08-31T10:39:42;100540.75;;;18.15;100.00
12676;BME280;63820;65.654;21.944;2023-08-31T10:42:25;100536.59;;;18.00;100.00
12676;BME280;63820;65.654;21.944;2023-08-31T10:45:10;100532.94;;;17.90;100.00
12676;BME280;63820;65.654;21.944;2023-08-31T10:48:00;100525.53;;;17.71;100.00
12676;BME280;63820;65.654;21.944;2023-08-31T10:50:46;100526.50;;;17.70;100.00
12676;BME280;63820;65.654;21.944;2023-08-31T10:53:35;100515.78;;;17.60;100.00
12676;BME280;63820;65.654;21.944;2023-08-31T10:56:19;100532.13;;;17.66;100.00
12676;BME280;63820;65.654;21.944;2023-08-31T10:59:03;100528.53;;;17.67;100.00
12676;BME280;63820;65.654;21.944;2023-08-31T11:01:54;100536.94;;;17.59;100.00
12676;BME280;63820;65.654;21.944;2023-08-31T11:05:08;100523.59;;;17.49;100.00
12676;BME280;63820;65.654;21.944;2023-08-31T11:07:52;100530.16;;;17.44;100.00
12676;BME280;63820;65.654;21.944;2023-08-31T11:10:37;100532.88;;;17.42;100.00
12676;BME280;63820;65.654;21.944;2023-08-31T11:13:22;100534.06;;;17.38;100.00
12676;BME280;63820;65.654;21.944;2023-08-31T11:16:07;100536.59;;;17.27;100.00
12676;BME280;63820;65.654;21.944;2023-08-31T11:18:51;100532.81;;;17.18;100.00
12676;BME280;63820;65.654;21.944;2023-08-31T11:21:38;100537.03;;;16.95;100.00
12676;BME280;63820;65.654;21.944;2023-08-31T11:24:22;100533.25;;;16.74;100.00
12676;BME280;63820;65.654;21.944;2023-08-31T11:27:10;100535.97;;;16.60;100.00
12676;BME280;63820;65.654;21.944;2023-08-31T11:29:54;100533.94;;;16.51;100.00
12676;BME280;63820;65.654;21.944;2023-08-31T11:32:44;100535.94;;;16.47;100.00
12676;BME280;63820;65.654;21.944;2023-08-31T11:35:35;100531.28;;;16.38;100.00
12676;BME280;63820;65.654;21.944;2023-08-31T11:38:20;100525.00;;;16.41;100.00
12676;BME280;63820;65.654;21.944;2023-08-31T11:41:04;100536.97;;;16.45;100.00
12676;BME280;63820;65.654;21.944;2023-08-31T11:43:48;100523.75;;;16.46;100.00
12676;BME280;63820;65.654;21.944;2023-08-31T11:46:33;100518.94;;;16.53;100.00
12676;BME280;63820;65.654;21.944;2023-08-31T11:49:18;100517.66;;;16.58;100.00
12676;BME280;63820;65.654;21.944;2023-08-31T11:52:03;100518.19;;;16.63;100.00
12676;BME280;63820;65.654;21.944;2023-08-31T11:54:52;100524.19;;;16.65;100.00
12676;BME280;63820;65.654;21.944;2023-08-31T11:57:37;100509.91;;;16.70;100.00
12676;BME280;63820;65.654;21.944;2023-08-31T12:00:22;100513.28;;;16.72;100.00
12676;BME280;63820;65.654;21.944;2023-08-31T12:03:07;100514.63;;;16.77;100.00
12676;BME280;63820;65.654;21.944;2023-08-31T12:05:52;100504.22;;;16.76;100.00
12676;BME280;63820;65.654;21.944;2023-08-31T12:08:39;100509.16;;;16.80;100.00
12676;BME280;63820;65.654;21.944;2023-08-31T12:11:22;100494.03;;;16.84;100.00
12676;BME280;63820;65.654;21.944;2023-08-31T12:14:27;100494.13;;;16.95;100.00
12676;BME280;63820;65.654;21.944;2023-08-31T12:17:11;100493.69;;;17.14;100.00
12676;BME280;63820;65.654;21.944;2023-08-31T12:20:05;100493.53;;;17.41;100.00
12676;BME280;63820;65.654;21.944;2023-08-31T12:22:50;100487.28;;;17.54;100.00
12676;BME280;63820;65.654;21.944;2023-08-31T12:25:34;100482.97;;;17.53;100.00
12676;BME280;63820;65.654;21.944;2023-08-31T12:28:19;100488.38;;;17.39;100.00
12676;BME280;63820;65.654;21.944;2023-08-31T12:31:04;100483.97;;;17.40;100.00
12676;BME280;63820;65.654;21.944;2023-08-31T12:33:48;100475.44;;;17.36;100.00
12676;BME280;63820;65.654;21.944;2023-08-31T12:36:33;100462.69;;;17.43;100.00
12676;BME280;63820;65.654;21.944;2023-08-31T12:39:18;100469.38;;;17.59;100.00
12676;BME280;63820;65.654;21.944;2023-08-31T12:42:02;100461.53;;;17.71;100.00
12676;BME280;63820;65.654;21.944;2023-08-31T12:44:47;100455.81;;;17.66;100.00
12676;BME280;63820;65.654;21.944;2023-08-31T12:47:31;100458.44;;;17.66;100.00
12676;BME280;63820;65.654;21.944;2023-08-31T12:50:15;100453.81;;;17.56;100.00
12676;BME280;63820;65.654;21.944;2023-08-31T12:52:59;100454.03;;;17.53;100.00
12676;BME280;63820;65.654;21.944;2023-08-31T12:55:43;100452.19;;;17.43;100.00
12676;BME280;63820;65.654;21.944;2023-08-31T12:58:27;100453.44;;;17.37;100.00
12676;BME280;63820;65.654;21.944;2023-08-31T13:01:11;100445.28;;;17.29;100.00
12676;BME280;63820;65.654;21.944;2023-08-31T13:03:56;100449.94;;;17.13;100.00
12676;BME280;63820;65.654;21.944;2023-08-31T13:06:40;100452.50;;;17.02;100.00
12676;BME280;63820;65.654;21.944;2023-08-31T13:09:24;100448.19;;;16.88;100.00
12676;BME280;63820;65.654;21.944;2023-08-31T13:12:08;100449.56;;;16.68;100.00
12676;BME280;63820;65.654;21.944;2023-08-31T13:14:52;100449.69;;;16.54;100.00
12676;BME280;63820;65.654;21.944;2023-08-31T13:17:37;100441.91;;;16.52;100.00
12676;BME280;63820;65.654;21.944;2023-08-31T13:20:21;100440.22;;;16.51;100.00
12676;BME280;63820;65.654;21.944;2023-08-31T13:23:06;100441.47;;;16.46;100.00
12676;BME280;63820;65.654;21.944;2023-08-31T13:25:50;100432.13;;;16.42;100.00
12676;BME280;63820;65.654;21.944;2023-08-31T13:28:35;100440.00;;;16.42;100.00
12676;BME280;63820;65.654;21.944;2023-08-31T13:31:19;100431.72;;;16.35;100.00
12676;BME280;63820;65.654;21.944;2023-08-31T13:34:03;100436.31;;;16.31;100.00
12676;BME280;63820;65.654;21.944;2023-08-31T13:36:49;100434.84;;;16.27;100.00
12676;BME280;63820;65.654;21.944;2023-08-31T13:39:34;100431.69;;;16.22;100.00
12676;BME280;63820;65.654;21.944;2023-08-31T13:42:23;100435.47;;;16.18;100.00
12676;BME280;63820;65.654;21.944;2023-08-31T13:45:07;100436.94;;;16.22;100.00
12676;BME280;63820;65.654;21.944;2023-08-31T13:47:52;100428.75;;;16.14;100.00
12676;BME280;63820;65.654;21.944;2023-08-31T13:50:36;100429.78;;;16.12;100.00
12676;BME280;63820;65.654;21.944;2023-08-31T13:53:20;100429.34;;;16.05;100.00
12676;BME280;63820;65.654;21.944;2023-08-31T13:56:04;100433.22;;;15.99;100.00
12676;BME280;63820;65.654;21.944;2023-08-31T13:58:48;100430.81;;;15.96;100.00
12676;BME280;63820;65.654;21.944;2023-08-31T14:01:32;100424.91;;;15.93;100.00
12676;BME280;63820;65.654;21.944;2023-08-31T14:04:16;100423.44;;;15.89;100.00
12676;BME280;63820;65.654;21.944;2023-08-31T14:07:00;100416.50;;;15.88;100.00
12676;BME280;63820;65.654;21.944;2023-08-31T14:09:44;100416.59;;;15.86;100.00
12676;BME280;63820;65.654;21.944;2023-08-31T14:12:28;100418.59;;;15.83;100.00